createdAt,value
2022-10-06T00:01:45.779Z,92.54
2022-10-06T00:04:47.621Z,89.27
2022-10-06T00:07:49.059Z,87.51
2022-10-06T00:10:54.697Z,89.62
2022-10-06T00:13:56.136Z,87.91
2022-10-06T00:16:57.573Z,89.25
2022-10-06T00:19:59.075Z,86.63
2022-10-06T00:23:00.490Z,87.19
2022-10-06T00:26:01.928Z,88.20
2022-10-06T00:29:03.644Z,89.13
2022-10-06T00:32:05.049Z,86.81
2022-10-06T00:35:08.016Z,87.51
2022-10-06T00:38:14.220Z,87.90
2022-10-06T00:41:17.320Z,88.91
2022-10-06T00:44:19.000Z,88.08
2022-10-06T00:47:24.653Z,88.08
2022-10-06T00:50:26.777Z,87.83
2022-10-06T00:53:30.679Z,87.38
2022-10-06T00:56:32.337Z,86.22
2022-10-06T00:59:36.084Z,86.40
2022-10-06T01:02:44.542Z,85.49
2022-10-06T01:05:51.561Z,84.58
2022-10-06T01:08:53.299Z,85.18
2022-10-06T01:11:59.554Z,85.62
2022-10-06T01:15:01.437Z,85.80
2022-10-06T01:18:13.208Z,85.57
2022-10-06T01:21:38.604Z,86.40
2022-10-06T01:24:46.559Z,85.51
2022-10-06T01:27:50.860Z,86.01
2022-10-06T01:30:54.410Z,85.71
2022-10-06T01:33:58.112Z,86.34
2022-10-06T01:36:59.582Z,87.63
2022-10-06T01:40:02.179Z,86.22
2022-10-06T01:43:03.873Z,88.29
2022-10-06T01:46:05.776Z,86.89
2022-10-06T01:49:07.261Z,87.01
2022-10-06T01:52:09.355Z,87.65
2022-10-06T01:55:10.796Z,88.48
2022-10-06T01:58:13.272Z,88.60
2022-10-06T02:01:15.421Z,90.38
2022-10-06T02:04:17.046Z,90.88
2022-10-06T02:07:18.848Z,90.51
2022-10-06T02:10:21.286Z,89.91
2022-10-06T02:13:27.393Z,92.01
2022-10-06T02:16:29.475Z,92.58
2022-10-06T02:19:31.317Z,93.33
2022-10-06T02:22:37.714Z,94.52
2022-10-06T02:25:39.178Z,95.46
2022-10-06T02:28:41.389Z,95.34
2022-10-06T02:31:47.314Z,93.60
2022-10-06T02:34:48.857Z,94.40
2022-10-06T02:37:51.012Z,93.95
2022-10-06T02:40:54.469Z,96.03
2022-10-06T02:43:56.816Z,96.73
2022-10-06T02:46:59.085Z,96.00
2022-10-06T02:50:03.313Z,93.83
2022-10-06T02:53:06.124Z,92.93
2022-10-06T02:56:10.024Z,94.32
2022-10-06T02:59:11.462Z,93.95
2022-10-06T03:02:16.106Z,94.16
2022-10-06T03:05:17.645Z,95.67
2022-10-06T03:08:19.113Z,96.57
2022-10-06T03:11:23.587Z,96.66
2022-10-06T03:14:25.281Z,96.64
2022-10-06T03:17:26.968Z,97.66
2022-10-06T03:20:31.166Z,98.31
2022-10-06T03:23:32.714Z,97.81
2022-10-06T03:26:37.824Z,97.84
2022-10-06T03:29:39.433Z,96.89
2022-10-06T03:32:40.996Z,96.16
2022-10-06T03:35:44.675Z,95.46
2022-10-06T03:38:46.337Z,95.99
2022-10-06T03:41:47.814Z,94.84
2022-10-06T03:44:49.261Z,94.78
2022-10-06T03:47:51.588Z,94.21
2022-10-06T03:51:07.250Z,93.63
2022-10-06T03:54:08.904Z,94.05
2022-10-06T03:57:10.383Z,94.33
2022-10-06T04:00:13.656Z,93.30
2022-10-06T04:03:19.553Z,95.30
2022-10-06T04:06:21.181Z,95.79
2022-10-06T04:09:23.064Z,96.47
2022-10-06T04:12:25.413Z,98.36
2022-10-06T04:15:26.971Z,97.50
2022-10-06T04:18:28.843Z,97.74
2022-10-06T04:21:32.273Z,97.76
2022-10-06T04:24:33.910Z,97.78
2022-10-06T04:27:36.256Z,97.64
2022-10-06T04:30:41.657Z,98.83
2022-10-06T04:33:44.434Z,99.82
2022-10-06T04:36:45.992Z,99.65
2022-10-06T04:39:50.171Z,100.00
2022-10-06T04:42:52.797Z,99.83
2022-10-06T04:45:59.120Z,100.00
2022-10-06T04:49:01.105Z,100.00
2022-10-06T04:52:05.333Z,100.00
2022-10-06T04:55:09.145Z,100.00
2022-10-06T04:58:10.622Z,100.00
2022-10-06T05:01:27.754Z,100.00
2022-10-06T05:04:29.908Z,100.00
2022-10-06T05:07:31.678Z,100.00
2022-10-06T05:10:33.269Z,100.00
2022-10-06T05:13:36.116Z,100.00
2022-10-06T05:16:38.336Z,100.00
2022-10-06T05:19:41.038Z,100.00
2022-10-06T05:22:43.030Z,100.00
2022-10-06T05:25:56.420Z,100.00
2022-10-06T05:28:58.408Z,100.00
2022-10-06T05:32:01.032Z,100.00
2022-10-06T05:35:04.918Z,100.00
2022-10-06T05:38:06.408Z,100.00
2022-10-06T05:41:13.145Z,100.00
2022-10-06T05:44:14.657Z,100.00
2022-10-06T05:47:17.976Z,100.00
2022-10-06T05:50:20.736Z,100.00
2022-10-06T05:53:22.934Z,100.00
2022-10-06T05:56:29.679Z,100.00
2022-10-06T05:59:31.269Z,100.00
2022-10-06T06:02:34.091Z,100.00
2022-10-06T06:05:42.809Z,100.00
2022-10-06T06:08:45.072Z,100.00
2022-10-06T06:11:49.257Z,100.00
2022-10-06T06:14:52.945Z,100.00
2022-10-06T06:17:58.601Z,100.00
2022-10-06T06:21:02.886Z,100.00
2022-10-06T06:24:05.146Z,99.76
2022-10-06T06:27:07.299Z,100.00
2022-10-06T06:30:09.357Z,100.00
2022-10-06T06:33:11.461Z,98.11
2022-10-06T06:36:17.261Z,98.18
2022-10-06T06:39:19.197Z,96.69
2022-10-06T06:42:22.791Z,93.06
2022-10-06T06:45:51.244Z,90.74
2022-10-06T06:49:07.675Z,90.10
2022-10-06T06:52:13.886Z,89.89
2022-10-06T06:55:16.279Z,91.63
2022-10-06T06:58:19.384Z,91.77
2022-10-06T07:01:22.906Z,92.42
2022-10-06T07:04:24.550Z,86.07
2022-10-06T07:07:26.771Z,82.68
2022-10-06T07:10:28.338Z,76.01
2022-10-06T07:13:29.991Z,76.27
2022-10-06T07:16:32.313Z,74.41
2022-10-06T07:19:33.899Z,72.45
2022-10-06T07:22:36.046Z,71.33
2022-10-06T07:25:40.164Z,70.08
2022-10-06T07:28:44.171Z,68.83
2022-10-06T07:31:47.917Z,68.68
2022-10-06T07:34:50.292Z,68.55
2022-10-06T07:37:52.746Z,68.07
2022-10-06T07:44:20.132Z,66.62
2022-10-06T07:47:21.927Z,66.01
2022-10-06T07:50:28.366Z,64.19
2022-10-06T07:53:30.440Z,63.69
2022-10-06T07:56:38.726Z,63.99
2022-10-06T07:59:40.149Z,64.89
2022-10-06T08:02:42.302Z,65.36
2022-10-06T08:05:48.599Z,65.92
2022-10-06T08:08:52.889Z,65.58
2022-10-06T08:11:54.744Z,64.00
2022-10-06T08:14:56.441Z,62.93
2022-10-06T08:18:02.615Z,67.51
2022-10-06T08:21:18.613Z,73.38
2022-10-06T08:24:20.039Z,73.63
2022-10-06T08:27:21.944Z,76.52
2022-10-06T08:30:23.378Z,76.96
2022-10-06T08:33:24.855Z,78.03
2022-10-06T08:36:31.357Z,77.48
2022-10-06T08:39:33.607Z,77.97
2022-10-06T08:42:44.584Z,77.78
2022-10-06T08:45:47.395Z,78.45
2022-10-06T08:48:49.072Z,76.61
2022-10-06T08:52:14.860Z,74.54
2022-10-06T08:55:28.442Z,73.35
2022-10-06T08:58:57.583Z,73.45
2022-10-06T09:01:59.787Z,70.57
2022-10-06T09:05:04.234Z,70.46
2022-10-06T09:08:44.568Z,68.44
2022-10-06T09:12:14.098Z,68.97
2022-10-06T09:15:37.710Z,68.17
2022-10-06T09:19:07.713Z,67.06
2022-10-06T09:22:17.166Z,68.21
2022-10-06T09:25:23.930Z,67.91
2022-10-06T09:28:25.537Z,65.33
2022-10-06T09:31:28.128Z,63.52
2022-10-06T09:34:48.465Z,65.08
2022-10-06T09:38:07.829Z,63.03
2022-10-06T09:41:12.406Z,61.16
2022-10-06T09:44:26.185Z,59.11
2022-10-06T09:47:35.198Z,59.39
2022-10-06T09:50:36.644Z,59.10
2022-10-06T09:53:38.192Z,57.94
2022-10-06T09:56:44.484Z,56.83
2022-10-06T09:59:47.292Z,55.77
2022-10-06T10:02:59.934Z,56.85
2022-10-06T10:06:02.388Z,56.16
2022-10-06T10:09:25.892Z,57.39
2022-10-06T10:12:27.371Z,61.13
2022-10-06T10:15:37.649Z,60.16
2022-10-06T10:18:46.648Z,61.08
2022-10-06T10:21:48.168Z,60.41
2022-10-06T10:24:55.656Z,59.12
2022-10-06T10:28:09.342Z,61.99
2022-10-06T10:31:35.049Z,58.50
2022-10-06T10:34:43.678Z,58.01
2022-10-06T10:37:53.570Z,57.09
2022-10-06T10:41:02.389Z,58.10
2022-10-06T10:44:14.931Z,56.45
2022-10-06T10:47:25.552Z,59.24
2022-10-06T10:50:33.249Z,60.54
2022-10-06T10:53:45.879Z,60.58
2022-10-06T10:56:50.928Z,59.87
2022-10-06T11:00:08.558Z,60.43
2022-10-06T11:03:10.066Z,58.44
2022-10-06T11:06:19.601Z,58.71
2022-10-06T11:09:30.279Z,59.03
2022-10-06T11:12:37.964Z,57.77
2022-10-06T11:15:48.403Z,57.79
2022-10-06T11:19:20.889Z,55.93
2022-10-06T11:22:46.831Z,56.08
2022-10-06T11:26:11.350Z,56.47
2022-10-06T11:29:40.808Z,56.83
2022-10-06T11:33:11.355Z,57.72
2022-10-06T11:36:40.164Z,56.60
2022-10-06T11:39:58.094Z,55.84
2022-10-06T11:43:03.613Z,57.11
2022-10-06T11:46:21.778Z,56.08
2022-10-06T11:49:29.107Z,53.71
2022-10-06T11:52:30.463Z,54.76
2022-10-06T11:55:32.684Z,55.33
2022-10-06T11:58:55.950Z,54.31
2022-10-06T12:01:58.559Z,55.03
2022-10-06T12:08:54.275Z,50.38
2022-10-06T12:11:58.133Z,55.17
2022-10-06T12:19:14.178Z,51.33
2022-10-06T12:22:30.403Z,54.50
2022-10-06T12:26:09.645Z,52.90
2022-10-06T12:29:32.856Z,55.60
2022-10-06T12:32:45.117Z,57.15
2022-10-06T12:35:46.764Z,57.32
2022-10-06T12:39:03.399Z,55.09
2022-10-06T12:42:19.524Z,53.62
2022-10-06T12:45:22.304Z,55.00
2022-10-06T12:49:03.269Z,55.85
2022-10-06T12:52:16.653Z,55.54
2022-10-06T12:55:46.322Z,55.50
2022-10-06T12:58:47.793Z,54.97
2022-10-06T13:01:52.380Z,55.22
2022-10-06T13:05:11.457Z,56.83
2022-10-06T13:08:25.623Z,56.42
2022-10-06T13:11:27.103Z,55.56
2022-10-06T13:14:28.524Z,55.88
2022-10-06T13:17:30.977Z,55.32
2022-10-06T13:20:51.697Z,55.72
2022-10-06T13:23:53.128Z,55.34
2022-10-06T13:26:54.870Z,54.51
2022-10-06T13:30:19.268Z,54.67
2022-10-06T13:33:22.212Z,54.30
2022-10-06T13:36:24.889Z,54.62
2022-10-06T13:39:28.874Z,53.82
2022-10-06T13:42:30.370Z,54.70
2022-10-06T13:45:31.848Z,54.70
2022-10-06T13:48:34.330Z,53.28
2022-10-06T13:51:35.797Z,56.01
2022-10-06T13:54:53.002Z,56.85
2022-10-06T13:57:57.182Z,56.25
2022-10-06T14:01:01.216Z,55.52
2022-10-06T14:04:16.400Z,54.83
2022-10-06T14:07:17.855Z,53.81
2022-10-06T14:10:32.780Z,55.15
2022-10-06T14:13:55.241Z,53.26
2022-10-06T14:16:56.858Z,54.33
2022-10-06T14:19:58.643Z,54.80
2022-10-06T14:23:00.573Z,57.15
2022-10-06T14:26:02.090Z,53.37
2022-10-06T14:29:04.067Z,55.62
2022-10-06T14:32:13.368Z,53.84
2022-10-06T14:35:14.822Z,54.20
2022-10-06T14:38:17.002Z,55.68
2022-10-06T14:41:19.860Z,55.44
2022-10-06T14:44:21.299Z,56.17
2022-10-06T14:47:22.706Z,55.58
2022-10-06T14:50:24.137Z,55.58
2022-10-06T14:53:25.534Z,55.84
2022-10-06T14:56:29.965Z,55.57
2022-10-06T14:59:31.487Z,56.28
2022-10-06T15:02:33.008Z,56.59
2022-10-06T15:05:34.554Z,57.70
2022-10-06T15:08:36.033Z,57.66
2022-10-06T15:11:39.569Z,58.15
2022-10-06T15:14:43.500Z,57.78
2022-10-06T15:17:44.961Z,56.48
2022-10-06T15:20:46.717Z,57.38
2022-10-06T15:23:48.201Z,58.33
2022-10-06T15:26:49.644Z,58.98
2022-10-06T15:29:51.099Z,60.34
2022-10-06T15:32:52.570Z,60.43
2022-10-06T15:36:15.582Z,60.88
2022-10-06T15:39:17.940Z,60.38
2022-10-06T15:42:19.421Z,58.29
2022-10-06T15:45:20.831Z,58.02
2022-10-06T15:48:23.763Z,61.20
2022-10-06T15:51:25.207Z,60.80
2022-10-06T15:54:29.305Z,61.58
2022-10-06T15:57:30.649Z,60.26
2022-10-06T16:00:32.091Z,63.35
2022-10-06T16:03:37.322Z,60.57
2022-10-06T16:06:41.598Z,62.01
2022-10-06T16:09:48.220Z,62.74
2022-10-06T16:12:49.711Z,61.46
2022-10-06T16:15:56.058Z,63.68
2022-10-06T16:18:57.743Z,61.98
2022-10-06T16:22:00.797Z,63.85
2022-10-06T16:25:02.270Z,66.29
2022-10-06T16:28:03.770Z,66.30
2022-10-06T16:31:05.504Z,67.86
2022-10-06T16:34:07.145Z,67.78
2022-10-06T16:37:08.603Z,67.35
2022-10-06T16:40:10.513Z,67.92
2022-10-06T16:43:11.925Z,68.15
2022-10-06T16:46:20.807Z,69.97
2022-10-06T16:49:22.275Z,71.87
2022-10-06T16:52:23.691Z,72.51
2022-10-06T16:55:25.082Z,72.86
2022-10-06T16:58:26.526Z,73.60
2022-10-06T17:01:29.882Z,73.82
2022-10-06T17:04:31.295Z,73.73
2022-10-06T17:07:35.783Z,74.88
2022-10-06T17:10:37.218Z,74.41
2022-10-06T17:13:42.491Z,72.61
2022-10-06T17:16:45.823Z,73.54
2022-10-06T17:19:47.298Z,73.98
2022-10-06T17:22:48.975Z,74.46
2022-10-06T17:26:03.953Z,74.42
2022-10-06T17:29:11.355Z,74.53
2022-10-06T17:32:12.799Z,76.38
2022-10-06T17:35:14.341Z,76.77
2022-10-06T17:38:15.817Z,76.93
2022-10-06T17:41:22.302Z,77.34
2022-10-06T17:44:24.874Z,78.31
2022-10-06T17:47:26.322Z,79.58
2022-10-06T17:50:28.005Z,79.54
2022-10-06T17:53:29.422Z,81.37
2022-10-06T17:56:32.576Z,81.37
2022-10-06T17:59:34.032Z,81.40
2022-10-06T18:02:35.533Z,80.94
2022-10-06T18:05:36.992Z,82.17
2022-10-06T18:08:39.150Z,82.88
2022-10-06T18:11:40.990Z,84.42
2022-10-06T18:14:42.393Z,86.26
2022-10-06T18:17:43.802Z,86.65
2022-10-06T18:20:45.235Z,88.31
2022-10-06T18:23:47.896Z,87.59
2022-10-06T18:26:51.557Z,87.96
2022-10-06T18:29:53.123Z,88.42
2022-10-06T18:36:16.584Z,89.00
2022-10-06T18:39:18.054Z,89.02
2022-10-06T18:42:19.499Z,89.99
2022-10-06T18:45:20.918Z,90.80
2022-10-06T18:48:22.341Z,91.01
2022-10-06T18:51:29.026Z,91.83
2022-10-06T18:54:30.762Z,92.96
2022-10-06T18:57:32.177Z,94.09
2022-10-06T19:00:33.668Z,95.08
2022-10-06T19:03:35.092Z,94.50
2022-10-06T19:06:38.445Z,94.00
2022-10-06T19:09:45.903Z,93.45
2022-10-06T19:12:48.145Z,93.30
2022-10-06T19:15:50.489Z,93.38
2022-10-06T19:18:51.944Z,93.94
2022-10-06T19:21:56.080Z,94.44
2022-10-06T19:24:57.424Z,95.54
2022-10-06T19:27:58.897Z,96.98
2022-10-06T19:31:03.898Z,97.09
2022-10-06T19:34:07.114Z,96.84
2022-10-06T19:37:08.688Z,96.39
2022-10-06T19:40:10.110Z,97.32
2022-10-06T19:43:11.592Z,96.95
2022-10-06T19:46:13.063Z,97.13
2022-10-06T19:49:14.761Z,96.88
2022-10-06T19:52:16.196Z,96.20
2022-10-06T19:55:17.635Z,96.99
2022-10-06T19:58:19.045Z,96.79
2022-10-06T20:01:20.588Z,96.48
2022-10-06T20:04:23.808Z,96.86
2022-10-06T20:07:25.250Z,96.88
2022-10-06T20:10:26.681Z,97.30
2022-10-06T20:13:28.119Z,98.10
2022-10-06T20:16:29.911Z,99.40
2022-10-06T20:19:31.446Z,99.02
2022-10-06T20:22:32.961Z,99.71
2022-10-06T20:25:34.380Z,99.96
2022-10-06T20:28:35.903Z,100.00
2022-10-06T20:31:40.504Z,100.00
2022-10-06T20:34:42.184Z,100.00
2022-10-06T20:37:43.785Z,100.00
2022-10-06T20:40:45.377Z,100.00
2022-10-06T20:43:46.788Z,100.00
2022-10-06T20:46:48.341Z,100.00
2022-10-06T20:49:49.739Z,100.00
2022-10-06T20:52:51.182Z,100.00
2022-10-06T20:55:52.616Z,100.00
2022-10-06T20:58:54.047Z,100.00
2022-10-06T21:01:55.927Z,100.00
2022-10-06T21:04:57.414Z,100.00
2022-10-06T21:07:58.799Z,100.00
2022-10-06T21:11:02.067Z,100.00
2022-10-06T21:14:03.504Z,100.00
2022-10-06T21:17:04.972Z,100.00
2022-10-06T21:20:06.765Z,100.00
2022-10-06T21:23:08.164Z,100.00
2022-10-06T21:26:12.224Z,100.00
2022-10-06T21:29:14.202Z,100.00
2022-10-06T21:32:15.622Z,100.00
2022-10-06T21:35:17.074Z,100.00
2022-10-06T21:38:18.515Z,100.00
2022-10-06T21:41:22.608Z,100.00
2022-10-06T21:44:24.092Z,100.00
2022-10-06T21:47:25.586Z,100.00
2022-10-06T21:50:27.110Z,100.00
2022-10-06T21:53:28.483Z,100.00
2022-10-06T21:56:31.989Z,100.00
2022-10-06T21:59:33.400Z,100.00
2022-10-06T22:02:34.816Z,100.00
2022-10-06T22:05:36.368Z,100.00
2022-10-06T22:08:38.432Z,100.00
2022-10-06T22:11:40.805Z,100.00
2022-10-06T22:14:42.226Z,100.00
2022-10-06T22:17:43.850Z,100.00
2022-10-06T22:20:45.455Z,100.00
2022-10-06T22:23:53.986Z,100.00
2022-10-06T22:26:55.434Z,100.00
2022-10-06T22:29:56.819Z,100.00
2022-10-06T22:32:58.224Z,100.00
2022-10-06T22:35:59.868Z,100.00
2022-10-06T22:39:01.741Z,100.00
2022-10-06T22:42:03.351Z,100.00
2022-10-06T22:45:05.357Z,100.00
2022-10-06T22:48:06.886Z,100.00
2022-10-06T22:51:08.660Z,100.00
2022-10-06T22:54:16.297Z,100.00
2022-10-06T22:57:17.700Z,100.00
2022-10-06T23:00:19.186Z,100.00
2022-10-06T23:03:21.366Z,100.00
2022-10-06T23:06:23.095Z,100.00
2022-10-06T23:09:24.541Z,100.00
2022-10-06T23:12:25.935Z,100.00
2022-10-06T23:15:28.203Z,100.00
2022-10-06T23:18:29.705Z,100.00
2022-10-06T23:21:31.252Z,100.00
2022-10-06T23:24:32.648Z,100.00
2022-10-06T23:27:34.639Z,100.00
2022-10-06T23:30:36.052Z,100.00
2022-10-06T23:33:37.620Z,100.00
2022-10-06T23:36:39.020Z,100.00
2022-10-06T23:39:40.623Z,100.00
2022-10-06T23:42:42.027Z,100.00
2022-10-06T23:45:43.523Z,100.00
2022-10-06T23:48:44.987Z,100.00
2022-10-06T23:51:46.510Z,100.00
2022-10-06T23:54:47.988Z,100.00
2022-10-06T23:57:49.368Z,100.00
